Time;durP1;ratioP1;P1;durP2;ratioP2;P2;SDS_P1;SDS_P2;PMS_P1;PMS_P2;Temp;Humidity;BMP_temperature;BMP_pressure;BME280_temperature;BME280_humidity;BME280_pressure;Samples;Min_cycle;Max_cycle;Signal;HPM_P1;HPM_P2
2022/10/29 00:01:44;;;;;;;33.63;8.30;;;;;;;12.56;100.00;102205.00;5016952;28;20021;-68
2022/10/29 00:04:10;;;;;;;33.13;8.90;;;;;;;12.55;100.00;102205.91;5012408;28;20476;-62
2022/10/29 00:06:36;;;;;;;33.45;8.95;;;;;;;12.50;100.00;102196.28;5011720;28;20390;-68
2022/10/29 00:09:02;;;;;;;41.90;9.43;;;;;;;12.50;100.00;102198.06;5013062;28;20476;-63
2022/10/29 00:11:28;;;;;;;35.25;9.77;;;;;;;12.45;100.00;102202.56;5013298;28;20055;-68
2022/10/29 00:13:59;;;;;;;36.72;10.18;;;;;;;12.41;100.00;102206.19;5012906;28;20536;-68
2022/10/29 00:16:34;;;;;;;44.70;10.40;;;;;;;12.41;100.00;102200.88;5013096;28;20026;-61
2022/10/29 00:18:59;;;;;;;32.83;9.15;;;;;;;12.37;100.00;102192.13;5012731;28;20042;-65
2022/10/29 00:21:25;;;;;;;31.05;9.75;;;;;;;12.32;100.00;102189.63;5013066;28;20081;-67
2022/10/29 00:23:51;;;;;;;38.95;10.15;;;;;;;12.29;100.00;102179.09;5014224;28;20033;-69
2022/10/29 00:26:19;;;;;;;33.22;9.02;;;;;;;12.24;100.00;102184.47;5013666;28;20036;-67
2022/10/29 00:28:45;;;;;;;33.08;9.82;;;;;;;12.22;100.00;102190.69;5008437;28;20058;-65
2022/10/29 00:31:15;;;;;;;36.72;9.48;;;;;;;12.25;100.00;102180.91;5008147;28;20076;-69
2022/10/29 00:33:41;;;;;;;38.05;9.35;;;;;;;12.29;100.00;102187.03;5009626;28;20092;-69
2022/10/29 00:36:16;;;;;;;35.97;10.35;;;;;;;12.28;100.00;102184.41;5009645;28;20373;-62
2022/10/29 00:38:42;;;;;;;33.85;9.45;;;;;;;12.23;100.00;102184.50;4993813;28;20037;-69
2022/10/29 00:41:10;;;;;;;40.42;10.07;;;;;;;12.21;100.00;102189.81;5010006;28;20034;-70
2022/10/29 00:43:36;;;;;;;34.35;9.98;;;;;;;12.21;100.00;102186.28;5008911;28;20368;-63
2022/10/29 00:46:06;;;;;;;39.10;9.43;;;;;;;12.22;100.00;102167.75;5009898;28;20022;-67
2022/10/29 00:48:35;;;;;;;36.70;10.20;;;;;;;12.24;100.00;102179.19;5009397;28;20456;-69
2022/10/29 00:51:02;;;;;;;36.38;10.07;;;;;;;12.23;100.00;102169.53;4992310;28;20396;-68
2022/10/29 00:53:29;;;;;;;30.75;9.55;;;;;;;12.21;100.00;102170.44;4991974;28;20018;-69
2022/10/29 00:55:55;;;;;;;29.52;8.63;;;;;;;12.16;100.00;102173.16;5011845;28;20029;-68
2022/10/29 00:58:21;;;;;;;35.55;8.77;;;;;;;12.13;100.00;102181.13;4992312;28;20033;-69
2022/10/29 01:00:46;;;;;;;38.90;9.57;;;;;;;12.11;100.00;102182.97;4990804;28;20033;-63
2022/10/29 01:03:11;;;;;;;41.20;9.23;;;;;;;12.07;100.00;102179.50;5008548;28;20080;-68
2022/10/29 01:05:37;;;;;;;27.92;8.88;;;;;;;12.06;100.00;102176.84;5008566;28;20634;-70
2022/10/29 01:08:03;;;;;;;30.35;10.05;;;;;;;12.03;100.00;102167.22;5008283;28;20136;-63
2022/10/29 01:10:37;;;;;;;35.25;9.40;;;;;;;12.00;100.00;102161.97;5009295;28;20122;-68
2022/10/29 01:13:25;;;;;;;35.67;9.52;;;;;;;11.98;100.00;102148.81;5008400;28;20071;-63
2022/10/29 01:16:01;;;;;;;35.63;10.05;;;;;;;11.97;100.00;102140.91;5014269;28;20029;-67
2022/10/29 01:18:35;;;;;;;28.13;8.50;;;;;;;11.94;100.00;102141.84;5007446;28;20088;-61
2022/10/29 01:21:19;;;;;;;33.58;9.77;;;;;;;11.92;100.00;102143.63;5008669;28;20049;-65
2022/10/29 01:23:56;;;;;;;30.92;9.30;;;;;;;11.93;100.00;102133.94;5009202;28;20091;-68
2022/10/29 01:26:38;;;;;;;37.45;9.88;;;;;;;11.95;100.00;102132.16;5016469;28;20034;-69
2022/10/29 01:29:28;;;;;;;36.75;10.88;;;;;;;11.95;100.00;102132.16;5008256;28;20034;-63
2022/10/29 01:32:11;;;;;;;33.75;11.10;;;;;;;11.91;100.00;102128.69;5008277;28;20034;-67
2022/10/29 01:34:50;;;;;;;29.23;10.07;;;;;;;11.89;100.00;102135.75;5008320;28;20030;-64
2022/10/29 01:37:23;;;;;;;29.92;10.18;;;;;;;11.87;100.00;102146.34;5005942;28;20032;-66
2022/10/29 01:40:14;;;;;;;39.00;10.43;;;;;;;11.85;100.00;102142.88;5010080;28;20029;-66
2022/10/29 01:42:48;;;;;;;35.25;11.60;;;;;;;11.83;100.00;102142.03;5027567;28;20416;-69
2022/10/29 01:45:30;;;;;;;41.35;11.80;;;;;;;11.83;100.00;102138.53;5010670;28;20428;-68
2022/10/29 01:48:00;;;;;;;36.20;12.48;;;;;;;11.80;100.00;102131.53;5010809;28;20025;-72
2022/10/29 01:50:26;;;;;;;36.75;11.70;;;;;;;11.79;100.00;102126.25;5026718;28;20563;-63
2022/10/29 01:52:52;;;;;;;38.60;12.48;;;;;;;11.80;100.00;102126.25;5028075;28;20116;-68
2022/10/29 01:55:19;;;;;;;35.20;13.48;;;;;;;11.79;100.00;102119.22;5025802;28;20026;-62
2022/10/29 01:57:45;;;;;;;35.25;13.13;;;;;;;11.83;100.00;102115.63;5010126;28;20029;-66
2022/10/29 02:00:12;;;;;;;41.47;13.43;;;;;;;11.83;100.00;102115.63;5007254;28;20026;-65
2022/10/29 02:02:44;;;;;;;48.80;15.10;;;;;;;11.85;100.00;102111.19;5005622;28;20022;-69
2022/10/29 02:05:45;;;;;;;44.30;14.27;;;;;;;11.86;100.00;102112.09;4989759;28;20429;-68
2022/10/29 02:08:20;;;;;;;49.53;14.52;;;;;;;11.88;100.00;102108.50;4988069;28;20065;-68
2022/10/29 02:10:55;;;;;;;41.17;14.23;;;;;;;11.92;100.00;102119.84;4973763;28;20034;-63
2022/10/29 02:13:26;;;;;;;53.13;16.58;;;;;;;11.94;100.00;102119.84;4990773;28;20661;-66
2022/10/29 02:15:53;;;;;;;41.72;15.07;;;;;;;11.95;100.00;102111.03;5007192;28;20032;-68
2022/10/29 02:18:18;;;;;;;47.35;16.58;;;;;;;11.98;100.00;102105.69;5010606;28;20041;-68
2022/10/29 02:20:45;;;;;;;44.53;16.88;;;;;;;11.96;100.00;102103.06;4992199;28;20088;-68
2022/10/29 02:23:11;;;;;;;49.78;16.08;;;;;;;11.98;100.00;102101.25;5007267;28;20026;-65
2022/10/29 02:25:36;;;;;;;54.55;18.45;;;;;;;11.96;100.00;102111.00;5005645;28;20026;-64
2022/10/29 02:28:01;;;;;;;42.53;16.35;;;;;;;11.94;100.00;102101.34;5008014;28;20033;-71
2022/10/29 02:30:27;;;;;;;39.47;15.95;;;;;;;11.94;100.00;102103.97;4989814;28;20477;-65
2022/10/29 02:32:52;;;;;;;47.67;16.50;;;;;;;11.92;100.00;102095.25;5007669;28;20030;-69
2022/10/29 02:35:17;;;;;;;43.42;15.10;;;;;;;11.94;100.00;102082.84;5006966;28;20057;-68
2022/10/29 02:37:43;;;;;;;45.55;15.18;;;;;;;11.95;100.00;102089.91;5007404;28;20036;-70
2022/10/29 02:40:08;;;;;;;40.47;15.98;;;;;;;11.92;100.00;102087.31;5012500;28;20026;-63
2022/10/29 02:42:34;;;;;;;46.67;17.00;;;;;;;11.95;100.00;102087.25;5007112;28;20077;-61
2022/10/29 02:44:59;;;;;;;54.25;17.20;;;;;;;11.93;100.00;102078.47;5008817;28;20022;-69
2022/10/29 02:47:24;;;;;;;50.97;17.10;;;;;;;11.96;100.00;102081.06;5007332;28;20570;-69
2022/10/29 02:49:50;;;;;;;52.25;16.88;;;;;;;11.99;100.00;102075.72;5007305;28;20061;-65
2022/10/29 02:52:15;;;;;;;40.97;14.63;;;;;;;11.99;100.00;102065.16;5007350;28;20030;-68
2022/10/29 02:54:41;;;;;;;55.25;17.98;;;;;;;12.03;100.00;102063.31;5006379;28;20045;-67
2022/10/29 02:57:07;;;;;;;44.17;16.30;;;;;;;12.04;100.00;102062.44;5005024;28;20428;-67
2022/10/29 02:59:32;;;;;;;47.35;16.95;;;;;;;12.01;100.00;102068.63;4990477;28;20028;-65
2022/10/29 03:01:57;;;;;;;45.15;19.13;;;;;;;12.01;100.00;102065.97;5007817;28;20038;-68
2022/10/29 03:04:23;;;;;;;42.97;19.38;;;;;;;12.01;100.00;102063.34;5006213;28;20030;-67
2022/10/29 03:06:48;;;;;;;58.42;20.50;;;;;;;12.04;100.00;102073.00;5008794;28;20048;-70
2022/10/29 03:09:13;;;;;;;49.75;18.92;;;;;;;12.05;100.00;102074.72;5006708;28;20121;-68
2022/10/29 03:11:39;;;;;;;43.85;17.90;;;;;;;12.05;100.00;102074.72;5006037;28;20030;-69
2022/10/29 03:14:04;;;;;;;48.85;19.52;;;;;;;12.06;100.00;102085.25;5006208;28;20113;-65
2022/10/29 03:16:29;;;;;;;45.08;17.45;;;;;;;12.11;100.00;102077.28;5008142;28;20057;-66
2022/10/29 03:18:55;;;;;;;43.92;18.30;;;;;;;12.18;100.00;102083.28;5005966;28;20034;-70
2022/10/29 03:21:20;;;;;;;49.90;19.02;;;;;;;12.23;100.00;102086.72;5006934;28;20037;-70
2022/10/29 03:23:46;;;;;;;48.53;19.90;;;;;;;12.31;100.00;102071.56;5006976;28;20025;-64
2022/10/29 03:26:11;;;;;;;56.53;20.75;;;;;;;12.32;100.00;102075.97;5006636;28;20384;-68
2022/10/29 03:28:36;;;;;;;53.90;19.48;;;;;;;12.34;100.00;102074.13;4989617;28;20587;-67
2022/10/29 03:31:02;;;;;;;43.78;17.70;;;;;;;12.36;100.00;102059.13;5011612;28;20409;-68
2022/10/29 03:33:27;;;;;;;36.30;16.77;;;;;;;12.38;100.00;102062.59;5005053;28;20026;-64
2022/10/29 03:36:00;;;;;;;58.22;21.17;;;;;;;12.40;100.00;102061.72;5005448;28;20037;-68
2022/10/29 03:38:26;;;;;;;54.10;19.90;;;;;;;12.38;100.00;102059.94;5006632;28;20538;-68
2022/10/29 03:40:51;;;;;;;53.72;20.73;;;;;;;12.40;100.00;102051.13;4989285;28;20096;-68
2022/10/29 03:43:17;;;;;;;46.45;19.63;;;;;;;12.40;100.00;102057.28;5006706;28;20361;-69
2022/10/29 03:45:42;;;;;;;50.67;21.73;;;;;;;12.46;100.00;102057.13;5007067;28;20030;-68
2022/10/29 03:48:08;;;;;;;42.30;20.02;;;;;;;12.50;100.00;102050.03;5005598;28;20050;-69
2022/10/29 03:50:33;;;;;;;46.65;20.30;;;;;;;12.51;100.00;102044.72;5007669;28;20057;-68
2022/10/29 03:52:58;;;;;;;47.70;21.30;;;;;;;12.49;100.00;102042.97;5013670;28;20037;-65
2022/10/29 03:55:24;;;;;;;49.38;20.83;;;;;;;12.50;100.00;102039.44;5006489;28;20025;-68
2022/10/29 03:57:49;;;;;;;48.25;21.95;;;;;;;12.48;100.00;102041.25;5005562;28;20049;-67
2022/10/29 04:00:15;;;;;;;45.95;19.67;;;;;;;12.48;100.00;102039.47;5006918;28;20087;-67
2022/10/29 04:02:40;;;;;;;54.33;21.77;;;;;;;12.47;100.00;102039.50;5010440;28;20396;-62
2022/10/29 04:05:05;;;;;;;51.17;21.05;;;;;;;12.48;100.00;102038.59;5009668;28;20026;-68
2022/10/29 04:07:31;;;;;;;42.25;18.50;;;;;;;12.53;100.00;102042.03;5023156;28;20060;-67
2022/10/29 04:09:56;;;;;;;41.90;18.77;;;;;;;12.56;100.00;102044.59;5030038;28;20419;-68
2022/10/29 04:12:21;;;;;;;50.13;20.98;;;;;;;12.57;100.00;102040.16;5030009;28;20025;-63
2022/10/29 04:14:47;;;;;;;45.38;19.10;;;;;;;12.62;100.00;102044.44;5026750;28;20054;-66
2022/10/29 04:17:12;;;;;;;43.75;19.40;;;;;;;12.67;100.00;102054.06;5013934;28;20068;-69
2022/10/29 04:19:38;;;;;;;47.60;20.38;;;;;;;12.72;100.00;102054.81;5008713;28;20361;-66
2022/10/29 04:22:03;;;;;;;49.85;19.23;;;;;;;12.71;100.00;102053.06;5009102;28;20387;-68
2022/10/29 04:24:28;;;;;;;42.45;18.23;;;;;;;12.73;100.00;102046.84;5010285;28;20426;-65
2022/10/29 04:26:54;;;;;;;41.65;18.25;;;;;;;12.73;100.00;102045.97;4975833;28;20065;-65
2022/10/29 04:29:19;;;;;;;45.50;18.80;;;;;;;12.70;100.00;102038.97;5009608;28;20038;-69
2022/10/29 04:31:44;;;;;;;41.05;19.45;;;;;;;12.75;100.00;102038.88;4992200;28;20714;-65
2022/10/29 04:34:10;;;;;;;39.78;18.20;;;;;;;12.75;100.00;102038.88;5008709;28;20088;-60
2022/10/29 04:36:35;;;;;;;43.40;18.50;;;;;;;12.73;100.00;102041.56;5014134;28;20030;-69
2022/10/29 04:39:00;;;;;;;45.50;19.48;;;;;;;12.74;100.00;102037.97;5009376;28;20036;-66
2022/10/29 04:41:26;;;;;;;44.17;19.98;;;;;;;12.75;100.00;102026.53;5007199;28;20024;-66
2022/10/29 04:43:51;;;;;;;45.63;18.70;;;;;;;12.77;100.00;102026.50;5008406;28;20468;-67
2022/10/29 04:46:16;;;;;;;51.35;20.65;;;;;;;12.79;100.00;102027.31;5018442;28;20044;-65
2022/10/29 04:48:42;;;;;;;44.58;18.98;;;;;;;12.77;100.00;102026.50;5028469;28;20029;-69
2022/10/29 04:51:17;;;;;;;38.60;18.13;;;;;;;12.78;100.00;102020.28;5027837;28;20025;-71
2022/10/29 04:53:43;;;;;;;36.72;17.67;;;;;;;12.81;100.00;102022.84;5029152;28;20026;-65
2022/10/29 04:56:08;;;;;;;43.83;18.38;;;;;;;12.78;100.00;102028.22;5021067;28;20076;-67
2022/10/29 04:58:33;;;;;;;42.70;16.77;;;;;;;12.75;100.00;102023.00;5010689;28;20026;-64
2022/10/29 05:01:03;;;;;;;41.17;17.70;;;;;;;12.75;100.00;102029.16;5010509;28;20100;-69
2022/10/29 05:03:29;;;;;;;33.03;16.60;;;;;;;12.74;100.00;102026.56;5008152;28;20044;-69
2022/10/29 05:05:55;;;;;;;34.20;16.90;;;;;;;12.73;100.00;102035.38;5008266;28;20026;-67
2022/10/29 05:08:20;;;;;;;39.72;16.23;;;;;;;12.76;100.00;102015.03;4991187;28;20104;-69
2022/10/29 05:10:45;;;;;;;31.90;16.27;;;;;;;12.79;100.00;102007.94;5009111;28;20026;-69
2022/10/29 05:13:11;;;;;;;30.02;14.13;;;;;;;12.77;100.00;102000.88;4990600;28;20116;-69
2022/10/29 05:15:37;;;;;;;36.65;15.80;;;;;;;12.76;100.00;101993.88;5008798;28;20157;-68
2022/10/29 05:18:03;;;;;;;32.78;16.00;;;;;;;12.75;100.00;102000.06;5008272;28;20160;-64
2022/10/29 05:20:29;;;;;;;32.10;15.23;;;;;;;12.79;100.00;101997.34;5009610;28;20113;-68
2022/10/29 05:23:02;;;;;;;37.05;15.45;;;;;;;12.80;100.00;101986.75;5010895;28;20393;-68
2022/10/29 05:25:29;;;;;;;34.08;15.85;;;;;;;12.80;100.00;101986.75;5008875;28;20025;-69
2022/10/29 05:27:59;;;;;;;35.83;16.45;;;;;;;12.80;100.00;101983.22;5006920;28;20026;-66
2022/10/29 05:30:24;;;;;;;35.78;17.05;;;;;;;12.82;100.00;101987.56;5008817;28;20399;-69
2022/10/29 05:32:50;;;;;;;38.72;15.98;;;;;;;12.84;100.00;101985.75;5008260;28;20033;-61
2022/10/29 05:35:15;;;;;;;33.60;15.73;;;;;;;12.83;100.00;101984.03;5008897;28;20079;-69
2022/10/29 05:37:40;;;;;;;35.10;16.17;;;;;;;12.84;100.00;101979.59;5007384;28;20030;-69
2022/10/29 05:40:06;;;;;;;38.05;17.25;;;;;;;12.81;100.00;101988.47;5007385;28;20128;-68
2022/10/29 05:42:32;;;;;;;38.78;15.65;;;;;;;12.80;100.00;101984.09;5014075;28;20080;-68
2022/10/29 05:44:57;;;;;;;40.80;17.55;;;;;;;12.83;100.00;101989.31;4990893;28;20512;-67
2022/10/29 05:47:22;;;;;;;36.80;17.17;;;;;;;12.79;100.00;101990.28;5006707;28;20563;-69
2022/10/29 05:49:48;;;;;;;40.85;17.52;;;;;;;12.77;100.00;101989.47;5006165;28;20388;-69
2022/10/29 05:52:13;;;;;;;36.63;15.70;;;;;;;12.79;100.00;101989.44;5008117;28;20376;-68
2022/10/29 05:54:38;;;;;;;30.02;15.63;;;;;;;12.82;100.00;101990.19;5010971;28;20514;-68
2022/10/29 05:57:04;;;;;;;34.13;16.00;;;;;;;12.83;100.00;101996.38;5028000;28;20472;-61
2022/10/29 05:59:29;;;;;;;37.20;17.00;;;;;;;12.82;100.00;101987.56;5028583;28;20508;-68
2022/10/29 06:01:54;;;;;;;35.15;16.92;;;;;;;12.81;100.00;101985.81;5025260;28;20414;-61
2022/10/29 06:04:20;;;;;;;39.38;17.73;;;;;;;12.84;100.00;101985.75;5009326;28;20030;-68
2022/10/29 06:06:45;;;;;;;36.17;17.40;;;;;;;12.86;100.00;101991.84;5007243;28;20054;-66
2022/10/29 06:09:10;;;;;;;36.13;15.88;;;;;;;12.92;100.00;101989.97;5007591;28;20053;-70
2022/10/29 06:11:36;;;;;;;42.75;19.17;;;;;;;12.94;100.00;101985.53;5008213;28;20037;-72
2022/10/29 06:14:01;;;;;;;44.10;18.13;;;;;;;12.94;100.00;101978.44;4990880;28;20050;-65
2022/10/29 06:16:26;;;;;;;51.88;20.60;;;;;;;12.93;100.00;101978.47;5008401;28;20022;-70
2022/10/29 06:18:52;;;;;;;48.03;21.10;;;;;;;12.95;100.00;101976.69;5007663;28;20018;-70
2022/10/29 06:21:17;;;;;;;41.42;20.35;;;;;;;12.96;100.00;101974.00;4990839;28;20065;-67
2022/10/29 06:23:42;;;;;;;45.63;20.17;;;;;;;13.00;100.00;101961.53;5007261;28;20109;-71
2022/10/29 06:26:07;;;;;;;38.75;19.35;;;;;;;13.08;100.00;101962.22;5012366;28;20053;-71
2022/10/29 06:28:33;;;;;;;42.42;22.33;;;;;;;13.11;100.00;101964.78;5017140;28;20025;-63
2022/10/29 06:30:58;;;;;;;50.00;21.83;;;;;;;13.18;100.00;101957.53;5026949;28;20029;-69
2022/10/29 06:33:24;;;;;;;51.25;23.63;;;;;;;13.26;100.00;101963.50;5026337;28;20030;-70
2022/10/29 06:35:49;;;;;;;48.95;22.92;;;;;;;13.27;100.00;101964.34;5026255;28;20021;-68
2022/10/29 06:38:14;;;;;;;52.50;22.50;;;;;;;13.28;100.00;101950.22;5026472;28;20027;-72
2022/10/29 06:40:41;;;;;;;58.58;25.67;;;;;;;13.34;100.00;101954.47;5027451;28;20030;-70
2022/10/29 06:43:08;;;;;;;59.05;24.70;;;;;;;13.36;100.00;101950.00;5027504;28;20025;-70
2022/10/29 06:45:34;;;;;;;52.20;23.90;;;;;;;13.43;100.00;101954.22;5008877;28;20038;-68
2022/10/29 06:48:00;;;;;;;57.40;25.80;;;;;;;13.46;100.00;101953.28;5021772;28;20037;-67
2022/10/29 06:50:25;;;;;;;48.42;23.15;;;;;;;13.58;100.00;101957.38;5004375;28;20559;-71
2022/10/29 06:52:57;;;;;;;54.65;23.60;;;;;;;13.59;100.00;101957.34;5025316;28;20035;-67
2022/10/29 06:55:22;;;;;;;45.90;21.38;;;;;;;13.63;100.00;101955.44;5025412;28;20079;-66
2022/10/29 06:57:55;;;;;;;51.88;22.13;;;;;;;13.55;100.00;101950.41;5007706;28;20029;-68
2022/10/29 07:00:20;;;;;;;39.50;20.77;;;;;;;13.51;100.00;101954.91;5025431;28;20017;-64
2022/10/29 07:02:45;;;;;;;44.78;22.55;;;;;;;13.52;100.00;101961.06;5024673;28;20036;-68
2022/10/29 07:05:11;;;;;;;49.28;22.40;;;;;;;13.55;100.00;101944.22;5025168;28;20021;-69
2022/10/29 07:07:36;;;;;;;55.35;23.58;;;;;;;13.52;100.00;101940.75;5025684;28;20048;-68
2022/10/29 07:10:01;;;;;;;53.35;23.42;;;;;;;13.53;100.00;101931.03;5026342;28;20025;-64
2022/10/29 07:12:27;;;;;;;53.20;22.98;;;;;;;13.51;100.00;101935.50;5025589;28;20079;-69
2022/10/29 07:14:52;;;;;;;58.30;23.83;;;;;;;13.63;100.00;101943.09;5025474;28;20024;-71
2022/10/29 07:17:17;;;;;;;51.72;22.73;;;;;;;13.72;100.00;101944.59;5025302;28;20480;-72
2022/10/29 07:19:43;;;;;;;38.08;19.73;;;;;;;13.83;100.00;101948.72;5022560;28;20487;-61
2022/10/29 07:22:08;;;;;;;49.00;23.00;;;;;;;13.88;100.00;101949.44;5025030;28;20531;-69
2022/10/29 07:24:33;;;;;;;60.20;21.98;;;;;;;13.98;100.00;101947.38;5023389;28;20029;-65
2022/10/29 07:27:00;;;;;;;44.03;21.00;;;;;;;14.09;100.00;101952.34;5025769;28;20099;-67
2022/10/29 07:29:26;;;;;;;47.20;18.83;;;;;;;14.23;100.00;101957.22;5017961;28;20125;-71
2022/10/29 07:31:51;;;;;;;42.00;19.55;;;;;;;14.30;100.00;101948.13;5005748;28;20034;-68
2022/10/29 07:34:16;;;;;;;44.30;20.65;;;;;;;14.29;100.00;101941.13;5011369;28;20033;-69
2022/10/29 07:36:42;;;;;;;43.67;19.33;;;;;;;14.47;100.00;101941.44;5030860;28;20056;-66
2022/10/29 07:39:07;;;;;;;39.88;16.52;;;;;;;14.55;100.00;101939.41;5014965;28;20029;-67
2022/10/29 07:41:32;;;;;;;37.55;17.50;;;;;;;14.63;100.00;101934.69;5021867;28;20029;-69
2022/10/29 07:43:58;;;;;;;28.98;15.25;;;;;;;14.81;100.00;101927.06;5028967;28;20099;-68
2022/10/29 07:46:23;;;;;;;35.30;14.68;;;;;;;14.69;100.00;101928.31;5021377;28;20033;-65
2022/10/29 07:48:48;;;;;;;25.60;14.70;;;;;;;14.87;100.00;101908.28;5009234;28;20105;-70
2022/10/29 07:51:14;;;;;;;23.52;14.02;;;;;;;15.00;100.00;101915.81;5010587;28;20042;-68
2022/10/29 07:53:39;;;;;;;35.97;15.23;;;;;;;15.03;100.00;101910.41;5014440;28;20026;-69
2022/10/29 07:56:04;;;;;;;33.55;14.88;;;;;;;15.02;100.00;101922.78;5009808;28;20029;-59
2022/10/29 07:58:30;;;;;;;28.63;14.85;;;;;;;15.13;100.00;101927.72;5010549;28;20057;-67
2022/10/29 08:00:58;;;;;;;28.40;15.10;;;;;;;15.19;100.00;101923.09;5011425;28;20061;-68
2022/10/29 08:03:23;;;;;;;29.23;15.43;;;;;;;15.20;100.00;101928.34;5008653;28;20911;-69
2022/10/29 08:05:49;;;;;;;27.83;14.35;;;;;;;15.32;100.00;101920.91;5009020;28;20101;-66
2022/10/29 08:08:14;;;;;;;33.25;15.68;;;;;;;15.38;100.00;101924.16;5015031;28;20542;-68
2022/10/29 08:10:39;;;;;;;27.42;14.07;;;;;;;15.44;100.00;101925.72;5027782;28;20481;-69
2022/10/29 08:13:05;;;;;;;27.30;14.73;;;;;;;15.50;100.00;101924.66;5021091;28;20657;-68
2022/10/29 08:15:32;;;;;;;29.33;14.63;;;;;;;15.60;100.00;101923.38;4995536;28;20065;-64
2022/10/29 08:17:58;;;;;;;24.73;14.00;;;;;;;15.71;100.00;101914.97;5015391;28;20029;-70
2022/10/29 08:20:25;;;;;;;37.75;15.23;;;;;;;15.75;100.00;101915.75;5009129;28;20026;-67
2022/10/29 08:22:50;;;;;;;27.63;14.52;;;;;;;15.81;100.00;101922.59;5009588;28;20040;-62
2022/10/29 08:25:16;;;;;;;28.38;14.15;;;;;;;15.83;100.00;101936.72;5019927;28;20030;-65
2022/10/29 08:27:42;;;;;;;37.92;14.35;;;;;;;15.92;100.00;101937.22;5016144;28;20014;-69
2022/10/29 08:30:10;;;;;;;36.13;14.52;;;;;;;16.01;100.00;101940.44;5013132;28;20064;-69
2022/10/29 08:32:36;;;;;;;34.95;14.90;;;;;;;16.02;100.00;101947.53;5024735;28;20035;-69
2022/10/29 08:35:01;;;;;;;25.45;13.38;;;;;;;15.98;100.00;101944.09;5008252;28;20025;-69
2022/10/29 08:37:27;;;;;;;32.08;12.65;;;;;;;16.02;100.00;101929.75;5008612;28;20065;-64
2022/10/29 08:39:52;;;;;;;24.15;13.70;;;;;;;16.16;100.00;101934.53;5008327;28;20117;-69
2022/10/29 08:42:41;;;;;;;27.55;13.35;;;;;;;16.03;100.00;101925.31;5009507;28;20058;-69
2022/10/29 08:45:12;;;;;;;27.02;13.82;;;;;;;16.11;100.00;101925.03;4990360;28;20030;-69
2022/10/29 08:48:04;;;;;;;27.90;14.02;;;;;;;16.21;100.00;101930.81;4988928;28;20014;-62
2022/10/29 08:50:32;;;;;;;26.45;14.30;;;;;;;16.29;100.00;101934.06;4991520;28;20026;-62
2022/10/29 08:52:59;;;;;;;32.75;13.27;;;;;;;16.39;100.00;101922.09;5006397;28;20057;-62
2022/10/29 08:55:35;;;;;;;28.13;13.70;;;;;;;16.56;100.00;101917.88;5008466;28;20026;-70
2022/10/29 08:58:36;;;;;;;21.70;13.30;;;;;;;16.76;100.00;101906.38;4991322;28;20476;-68
2022/10/29 09:01:01;;;;;;;27.67;12.82;;;;;;;16.74;100.00;101896.72;5016392;28;20053;-68
2022/10/29 09:03:28;;;;;;;23.55;12.15;;;;;;;16.90;100.00;101900.47;5025981;28;20013;-72
2022/10/29 09:07:04;;;;;;;27.55;13.27;;;;;;;16.90;100.00;101891.59;5027142;28;20025;-69
2022/10/29 09:09:51;;;;;;;30.58;12.43;;;;;;;16.96;100.00;101890.47;4902801;29;20119;-71
2022/10/29 09:12:32;;;;;;;22.00;12.35;;;;;;;16.90;100.00;101900.47;4927922;29;20074;-73
2022/10/29 09:15:22;;;;;;;25.08;12.15;;;;;;;16.94;100.00;101895.84;5017307;28;20044;-66
2022/10/29 09:17:51;;;;;;;27.52;13.10;;;;;;;16.98;100.00;101894.78;5024886;28;20520;-71
2022/10/29 09:20:34;;;;;;;29.00;12.82;;;;;;;16.92;100.00;101884.41;5024697;28;20095;-64
2022/10/29 09:23:14;;;;;;;32.10;12.60;;;;;;;16.98;100.00;101875.28;5002934;28;20056;-70
2022/10/29 09:25:49;;;;;;;20.02;11.70;;;;;;;16.89;100.00;101864.09;5026847;28;20491;-71
2022/10/29 09:28:32;;;;;;;27.63;12.40;;;;;;;16.92;100.00;101863.97;5025757;28;20042;-70
2022/10/29 09:31:17;;;;;;;24.02;12.32;;;;;;;16.99;100.00;101848.59;5024825;28;20052;-67
2022/10/29 09:33:47;;;;;;;27.40;12.00;;;;;;;17.10;100.00;101836.63;5027155;28;20029;-70
2022/10/29 09:36:15;;;;;;;20.17;12.00;;;;;;;17.05;100.00;101827.03;5010135;28;20026;-71
2022/10/29 09:38:49;;;;;;;27.92;12.63;;;;;;;17.09;100.00;101835.75;5023239;28;20117;-71
2022/10/29 09:41:15;;;;;;;24.70;11.60;;;;;;;17.00;100.00;101838.78;5008638;28;20500;-69
2022/10/29 09:43:55;;;;;;;23.60;12.93;;;;;;;17.11;100.00;101849.00;4990358;28;20036;-70
2022/10/29 09:46:30;;;;;;;24.30;12.90;;;;;;;17.20;100.00;101837.06;5007817;28;20109;-70
2022/10/29 09:49:30;;;;;;;24.45;12.55;;;;;;;17.18;100.00;101843.31;4990136;28;20033;-67
2022/10/29 09:52:14;;;;;;;29.08;11.85;;;;;;;17.30;100.00;101841.03;5025224;28;20035;-67
2022/10/29 09:54:39;;;;;;;20.42;10.38;;;;;;;17.42;100.00;101845.78;5010104;28;20503;-68
2022/10/29 09:57:06;;;;;;;25.35;11.77;;;;;;;17.38;100.00;101849.53;5028407;28;20024;-72
2022/10/29 09:59:39;;;;;;;19.02;10.60;;;;;;;17.31;100.00;101853.44;5021877;28;20099;-72
2022/10/29 10:02:44;;;;;;;24.02;11.57;;;;;;;17.52;100.00;101840.03;5008548;28;20030;-71
2022/10/29 10:05:12;;;;;;;19.95;10.32;;;;;;;17.63;100.00;101837.72;4946361;28;20058;-69
2022/10/29 10:07:39;;;;;;;21.55;11.05;;;;;;;17.60;100.00;101844.97;5028363;28;20061;-70
2022/10/29 10:10:07;;;;;;;19.98;10.48;;;;;;;17.72;100.00;101835.53;5027366;28;20472;-68
2022/10/29 10:12:35;;;;;;;21.15;10.90;;;;;;;17.86;100.00;101824.19;5010400;28;20040;-71
2022/10/29 10:15:19;;;;;;;22.90;10.15;;;;;;;18.00;100.00;101823.53;5027764;28;20427;-73
2022/10/29 10:18:01;;;;;;;19.63;10.25;;;;;;;18.23;100.00;101819.72;5009856;28;20022;-69
2022/10/29 10:20:31;;;;;;;30.25;10.77;;;;;;;18.24;100.00;101815.25;5027945;28;20120;-70
2022/10/29 10:22:57;;;;;;;27.65;9.57;;;;;;;18.34;100.00;101815.63;5009031;28;20526;-72
2022/10/29 10:25:31;;;;;;;19.58;8.75;;;;;;;18.27;100.00;101804.44;5026643;28;20033;-74
2022/10/29 10:27:57;;;;;;;23.60;10.10;;;;;;;18.32;100.00;101813.03;5026912;28;20037;-70
2022/10/29 10:30:23;;;;;;;24.13;9.60;;;;;;;18.36;100.00;101808.44;5027488;28;20116;-71
2022/10/29 10:32:48;;;;;;;20.08;8.77;;;;;;;18.34;100.00;101812.97;5026633;28;20032;-65
2022/10/29 10:35:28;;;;;;;15.80;8.80;;;;;;;18.41;100.00;101807.25;5027355;28;20452;-63
2022/10/29 10:37:54;;;;;;;19.48;8.48;;;;;;;18.60;100.00;101806.25;5028019;28;20040;-73
2022/10/29 10:40:23;;;;;;;20.45;8.80;;;;;;;18.86;100.00;101812.03;5010442;28;20033;-66
2022/10/29 10:42:51;;;;;;;18.25;8.68;;;;;;;19.22;100.00;101812.81;5001987;28;20033;-67
2022/10/29 10:45:24;;;;;;;18.90;8.73;;;;;;;19.49;100.00;101822.03;5020844;28;20018;-68
2022/10/29 10:47:57;;;;;;;19.38;8.55;;;;;;;19.48;100.00;101831.00;5023354;28;20044;-69
2022/10/29 10:50:27;;;;;;;21.10;8.13;;;;;;;20.00;100.00;101837.84;5007422;28;20033;-68
2022/10/29 10:52:55;;;;;;;19.80;8.20;;;;;;;20.23;100.00;101841.03;5026927;28;20044;-68
2022/10/29 10:55:30;;;;;;;16.13;7.95;;;;;;;20.41;100.00;101838.22;5024778;28;20468;-68
2022/10/29 10:58:08;;;;;;;19.27;7.88;;;;;;;20.47;100.00;101831.63;5006360;28;20035;-69
2022/10/29 11:00:42;;;;;;;17.95;8.57;;;;;;;20.42;100.00;101835.44;5009295;28;20069;-62
2022/10/29 11:03:08;;;;;;;18.15;8.13;;;;;;;20.42;100.00;101823.88;5005074;28;20079;-66
2022/10/29 11:05:48;;;;;;;22.27;8.50;;;;;;;20.20;100.00;101822.47;5024236;28;20033;-68
2022/10/29 11:08:25;;;;;;;21.42;8.35;;;;;;;19.92;100.00;101819.56;5009255;28;20041;-66
2022/10/29 11:10:54;;;;;;;17.88;8.68;;;;;;;19.82;100.00;101815.72;5008203;28;20029;-65